sensor_id;sensor_type;location;lat;lon;timestamp;temperature;humidity
17891;DHT22;9071;48.220;14.480;2023-01-26T00:03:42;2.00;99.90
17891;DHT22;9071;48.220;14.480;2023-01-26T00:08:45;2.00;99.90
17891;DHT22;9071;48.220;14.480;2023-01-26T00:13:50;2.00;99.90
17891;DHT22;9071;48.220;14.480;2023-01-26T00:18:52;2.00;99.90
17891;DHT22;9071;48.220;14.480;2023-01-26T00:23:54;2.00;99.90
17891;DHT22;9071;48.220;14.480;2023-01-26T00:28:59;2.00;99.90
17891;DHT22;9071;48.220;14.480;2023-01-26T00:34:01;2.00;99.90
17891;DHT22;9071;48.220;14.480;2023-01-26T00:39:03;2.00;99.90
17891;DHT22;9071;48.220;14.480;2023-01-26T00:44:07;2.00;99.90
17891;DHT22;9071;48.220;14.480;2023-01-26T00:49:09;2.00;99.90
17891;DHT22;9071;48.220;14.480;2023-01-26T00:54:11;2.00;99.90
17891;DHT22;9071;48.220;14.480;2023-01-26T00:59:15;2.00;99.90
17891;DHT22;9071;48.220;14.480;2023-01-26T01:04:17;2.00;99.90
17891;DHT22;9071;48.220;14.480;2023-01-26T01:09:19;2.00;99.90
17891;DHT22;9071;48.220;14.480;2023-01-26T01:14:22;2.00;99.90
17891;DHT22;9071;48.220;14.480;2023-01-26T01:19:24;2.00;99.90
17891;DHT22;9071;48.220;14.480;2023-01-26T01:24:27;2.00;99.90
17891;DHT22;9071;48.220;14.480;2023-01-26T01:29:30;2.00;99.90
17891;DHT22;9071;48.220;14.480;2023-01-26T01:34:32;1.90;99.90
17891;DHT22;9071;48.220;14.480;2023-01-26T01:39:34;1.90;99.90
17891;DHT22;9071;48.220;14.480;2023-01-26T01:44:38;1.90;99.90
17891;DHT22;9071;48.220;14.480;2023-01-26T01:49:43;1.90;99.90
17891;DHT22;9071;48.220;14.480;2023-01-26T01:54:49;1.80;99.90
17891;DHT22;9071;48.220;14.480;2023-01-26T01:59:58;1.80;99.90
17891;DHT22;9071;48.220;14.480;2023-01-26T02:05:06;1.80;99.90
17891;DHT22;9071;48.220;14.480;2023-01-26T02:10:11;1.70;99.90
17891;DHT22;9071;48.220;14.480;2023-01-26T02:15:21;1.70;99.90
17891;DHT22;9071;48.220;14.480;2023-01-26T02:20:28;1.70;99.90
17891;DHT22;9071;48.220;14.480;2023-01-26T02:25:39;1.70;99.90
17891;DHT22;9071;48.220;14.480;2023-01-26T02:30:44;1.60;99.90
17891;DHT22;9071;48.220;14.480;2023-01-26T02:35:47;1.60;99.90
17891;DHT22;9071;48.220;14.480;2023-01-26T02:40:52;1.60;99.90
17891;DHT22;9071;48.220;14.480;2023-01-26T02:45:56;1.60;99.90
17891;DHT22;9071;48.220;14.480;2023-01-26T02:50:58;1.60;99.90
17891;DHT22;9071;48.220;14.480;2023-01-26T02:56:00;1.60;99.90
17891;DHT22;9071;48.220;14.480;2023-01-26T03:01:04;1.60;99.90
17891;DHT22;9071;48.220;14.480;2023-01-26T03:06:07;1.60;99.90
17891;DHT22;9071;48.220;14.480;2023-01-26T03:11:10;1.60;99.90
17891;DHT22;9071;48.220;14.480;2023-01-26T03:16:13;1.50;99.90
17891;DHT22;9071;48.220;14.480;2023-01-26T03:21:18;1.50;99.90
17891;DHT22;9071;48.220;14.480;2023-01-26T03:26:38;1.50;99.90
17891;DHT22;9071;48.220;14.480;2023-01-26T03:32:11;1.50;99.90
17891;DHT22;9071;48.220;14.480;2023-01-26T03:37:13;1.50;99.90
17891;DHT22;9071;48.220;14.480;2023-01-26T03:42:15;1.50;99.90
17891;DHT22;9071;48.220;14.480;2023-01-26T03:47:36;1.50;99.90
17891;DHT22;9071;48.220;14.480;2023-01-26T03:52:55;1.50;99.90
17891;DHT22;9071;48.220;14.480;2023-01-26T03:58:15;1.50;99.90
17891;DHT22;9071;48.220;14.480;2023-01-26T04:03:18;1.50;99.90
17891;DHT22;9071;48.220;14.480;2023-01-26T04:08:37;1.50;99.90
17891;DHT22;9071;48.220;14.480;2023-01-26T04:13:39;1.50;99.90
17891;DHT22;9071;48.220;14.480;2023-01-26T04:19:00;1.40;99.90
17891;DHT22;9071;48.220;14.480;2023-01-26T04:24:20;1.40;99.90
17891;DHT22;9071;48.220;14.480;2023-01-26T04:29:22;1.40;99.90
17891;DHT22;9071;48.220;14.480;2023-01-26T04:34:25;1.40;99.90
17891;DHT22;9071;48.220;14.480;2023-01-26T04:39:27;1.40;99.90
17891;DHT22;9071;48.220;14.480;2023-01-26T04:44:30;1.50;99.90
17891;DHT22;9071;48.220;14.480;2023-01-26T04:49:33;1.50;99.90
17891;DHT22;9071;48.220;14.480;2023-01-26T04:54:35;1.50;99.90
17891;DHT22;9071;48.220;14.480;2023-01-26T04:59:37;1.50;99.90
17891;DHT22;9071;48.220;14.480;2023-01-26T05:04:41;1.50;99.90
17891;DHT22;9071;48.220;14.480;2023-01-26T05:09:43;1.50;99.90
17891;DHT22;9071;48.220;14.480;2023-01-26T05:14:45;1.50;99.90
17891;DHT22;9071;48.220;14.480;2023-01-26T05:19:48;1.40;99.90
17891;DHT22;9071;48.220;14.480;2023-01-26T05:24:50;1.50;99.90
17891;DHT22;9071;48.220;14.480;2023-01-26T05:29:52;1.50;99.90
17891;DHT22;9071;48.220;14.480;2023-01-26T05:35:01;1.50;99.90
17891;DHT22;9071;48.220;14.480;2023-01-26T05:40:04;1.50;99.90
17891;DHT22;9071;48.220;14.480;2023-01-26T05:45:07;1.40;99.90
17891;DHT22;9071;48.220;14.480;2023-01-26T05:50:11;1.40;99.90
17891;DHT22;9071;48.220;14.480;2023-01-26T05:55:13;1.30;99.90
17891;DHT22;9071;48.220;14.480;2023-01-26T06:00:16;1.40;99.90
17891;DHT22;9071;48.220;14.480;2023-01-26T06:05:20;1.40;99.90
17891;DHT22;9071;48.220;14.480;2023-01-26T06:10:22;1.40;99.90
17891;DHT22;9071;48.220;14.480;2023-01-26T06:15:24;1.40;99.90
17891;DHT22;9071;48.220;14.480;2023-01-26T06:20:27;1.40;99.90
17891;DHT22;9071;48.220;14.480;2023-01-26T06:25:29;1.40;99.90
17891;DHT22;9071;48.220;14.480;2023-01-26T06:30:31;1.40;99.90
17891;DHT22;9071;48.220;14.480;2023-01-26T06:35:35;1.40;99.90
17891;DHT22;9071;48.220;14.480;2023-01-26T06:40:37;1.40;99.90
17891;DHT22;9071;48.220;14.480;2023-01-26T06:45:40;1.40;99.90
17891;DHT22;9071;48.220;14.480;2023-01-26T06:50:43;1.40;99.90
17891;DHT22;9071;48.220;14.480;2023-01-26T06:55:46;1.40;99.90
17891;DHT22;9071;48.220;14.480;2023-01-26T07:00:49;1.50;99.90
17891;DHT22;9071;48.220;14.480;2023-01-26T07:05:52;1.50;99.90
17891;DHT22;9071;48.220;14.480;2023-01-26T07:10:54;1.50;99.90
17891;DHT22;9071;48.220;14.480;2023-01-26T07:15:59;1.50;99.90
17891;DHT22;9071;48.220;14.480;2023-01-26T07:21:05;1.40;99.90
17891;DHT22;9071;48.220;14.480;2023-01-26T07:26:07;1.40;99.90
17891;DHT22;9071;48.220;14.480;2023-01-26T07:31:10;1.40;99.90
17891;DHT22;9071;48.220;14.480;2023-01-26T07:36:14;1.40;99.90
17891;DHT22;9071;48.220;14.480;2023-01-26T07:41:16;1.50;99.90
17891;DHT22;9071;48.220;14.480;2023-01-26T07:46:18;1.50;99.90
17891;DHT22;9071;48.220;14.480;2023-01-26T07:51:21;1.50;99.90
17891;DHT22;9071;48.220;14.480;2023-01-26T07:56:23;1.50;99.90
17891;DHT22;9071;48.220;14.480;2023-01-26T08:01:25;1.50;99.90
17891;DHT22;9071;48.220;14.480;2023-01-26T08:06:29;1.50;99.90
17891;DHT22;9071;48.220;14.480;2023-01-26T08:11:31;1.50;99.90
17891;DHT22;9071;48.220;14.480;2023-01-26T08:16:33;1.50;99.90
17891;DHT22;9071;48.220;14.480;2023-01-26T08:21:38;1.50;99.90
17891;DHT22;9071;48.220;14.480;2023-01-26T08:26:40;1.50;99.90
17891;DHT22;9071;48.220;14.480;2023-01-26T08:31:42;1.60;99.90
17891;DHT22;9071;48.220;14.480;2023-01-26T08:36:45;1.60;99.90
17891;DHT22;9071;48.220;14.480;2023-01-26T08:41:48;1.60;99.90
17891;DHT22;9071;48.220;14.480;2023-01-26T08:46:50;1.60;99.90
17891;DHT22;9071;48.220;14.480;2023-01-26T08:51:59;1.60;99.90
17891;DHT22;9071;48.220;14.480;2023-01-26T08:57:01;1.70;99.90
17891;DHT22;9071;48.220;14.480;2023-01-26T09:02:03;1.80;99.90
17891;DHT22;9071;48.220;14.480;2023-01-26T09:07:06;1.80;99.90
17891;DHT22;9071;48.220;14.480;2023-01-26T09:12:09;1.90;99.90
17891;DHT22;9071;48.220;14.480;2023-01-26T09:17:11;1.90;99.90
17891;DHT22;9071;48.220;14.480;2023-01-26T09:22:14;1.90;99.90
17891;DHT22;9071;48.220;14.480;2023-01-26T09:27:16;2.00;99.90
17891;DHT22;9071;48.220;14.480;2023-01-26T09:32:19;1.90;99.90
17891;DHT22;9071;48.220;14.480;2023-01-26T09:37:22;1.90;99.90
17891;DHT22;9071;48.220;14.480;2023-01-26T09:42:54;1.90;99.90
17891;DHT22;9071;48.220;14.480;2023-01-26T09:48:07;1.90;99.90
17891;DHT22;9071;48.220;14.480;2023-01-26T09:53:17;2.00;99.90
17891;DHT22;9071;48.220;14.480;2023-01-26T09:58:27;2.00;99.90
17891;DHT22;9071;48.220;14.480;2023-01-26T10:03:37;2.00;99.90
17891;DHT22;9071;48.220;14.480;2023-01-26T10:08:43;2.00;99.90
17891;DHT22;9071;48.220;14.480;2023-01-26T10:13:49;2.00;99.90
17891;DHT22;9071;48.220;14.480;2023-01-26T10:18:55;2.10;99.90
17891;DHT22;9071;48.220;14.480;2023-01-26T10:24:01;2.10;99.90
17891;DHT22;9071;48.220;14.480;2023-01-26T10:29:05;2.10;99.90
17891;DHT22;9071;48.220;14.480;2023-01-26T10:34:12;2.10;99.90
17891;DHT22;9071;48.220;14.480;2023-01-26T10:39:16;2.10;99.90
17891;DHT22;9071;48.220;14.480;2023-01-26T10:44:22;2.10;99.90
17891;DHT22;9071;48.220;14.480;2023-01-26T10:49:25;2.10;99.90
17891;DHT22;9071;48.220;14.480;2023-01-26T10:54:29;2.10;99.90
17891;DHT22;9071;48.220;14.480;2023-01-26T10:59:36;2.00;99.90
17891;DHT22;9071;48.220;14.480;2023-01-26T11:04:39;2.00;99.90
17891;DHT22;9071;48.220;14.480;2023-01-26T11:09:43;2.00;99.90
17891;DHT22;9071;48.220;14.480;2023-01-26T11:14:59;1.90;99.90
17891;DHT22;9071;48.220;14.480;2023-01-26T11:20:26;2.00;99.90
17891;DHT22;9071;48.220;14.480;2023-01-26T11:25:34;2.10;99.90
17891;DHT22;9071;48.220;14.480;2023-01-26T11:30:49;2.10;99.90
17891;DHT22;9071;48.220;14.480;2023-01-26T11:36:02;2.20;99.90
17891;DHT22;9071;48.220;14.480;2023-01-26T11:41:22;2.20;99.90
17891;DHT22;9071;48.220;14.480;2023-01-26T11:46:54;2.20;99.90
17891;DHT22;9071;48.220;14.480;2023-01-26T11:52:05;2.20;99.90
17891;DHT22;9071;48.220;14.480;2023-01-26T11:57:20;2.20;99.90
17891;DHT22;9071;48.220;14.480;2023-01-26T12:02:30;2.20;99.90
17891;DHT22;9071;48.220;14.480;2023-01-26T12:07:40;2.20;99.90
17891;DHT22;9071;48.220;14.480;2023-01-26T12:13:02;2.20;99.90
17891;DHT22;9071;48.220;14.480;2023-01-26T12:18:12;2.20;99.90
17891;DHT22;9071;48.220;14.480;2023-01-26T12:23:30;2.20;99.90
17891;DHT22;9071;48.220;14.480;2023-01-26T12:28:40;2.20;99.90
17891;DHT22;9071;48.220;14.480;2023-01-26T12:33:46;2.10;99.90
17891;DHT22;9071;48.220;14.480;2023-01-26T12:39:01;2.10;99.90
17891;DHT22;9071;48.220;14.480;2023-01-26T12:44:20;2.20;99.90
17891;DHT22;9071;48.220;14.480;2023-01-26T12:49:31;2.30;99.90
17891;DHT22;9071;48.220;14.480;2023-01-26T12:54:41;2.30;99.90
17891;DHT22;9071;48.220;14.480;2023-01-26T12:59:47;2.30;99.90
17891;DHT22;9071;48.220;14.480;2023-01-26T13:04:49;2.30;99.90
17891;DHT22;9071;48.220;14.480;2023-01-26T13:10:18;2.30;99.90
17891;DHT22;9071;48.220;14.480;2023-01-26T13:15:23;2.40;99.90
17891;DHT22;9071;48.220;14.480;2023-01-26T13:20:50;2.20;99.90
17891;DHT22;9071;48.220;14.480;2023-01-26T13:26:20;2.10;99.90
17891;DHT22;9071;48.220;14.480;2023-01-26T13:31:30;2.00;99.90
17891;DHT22;9071;48.220;14.480;2023-01-26T13:36:35;2.00;99.90
17891;DHT22;9071;48.220;14.480;2023-01-26T13:41:44;2.00;99.90
17891;DHT22;9071;48.220;14.480;2023-01-26T13:46:51;2.00;99.90
17891;DHT22;9071;48.220;14.480;2023-01-26T13:51:56;2.00;99.90
17891;DHT22;9071;48.220;14.480;2023-01-26T13:57:03;2.00;99.90
17891;DHT22;9071;48.220;14.480;2023-01-26T14:02:20;2.00;99.90
17891;DHT22;9071;48.220;14.480;2023-01-26T14:07:25;1.90;99.90
17891;DHT22;9071;48.220;14.480;2023-01-26T14:12:31;1.80;99.90
17891;DHT22;9071;48.220;14.480;2023-01-26T14:17:45;1.80;99.90
17891;DHT22;9071;48.220;14.480;2023-01-26T14:23:01;1.80;99.90
17891;DHT22;9071;48.220;14.480;2023-01-26T14:28:04;1.70;99.90
17891;DHT22;9071;48.220;14.480;2023-01-26T14:33:11;1.70;99.90
17891;DHT22;9071;48.220;14.480;2023-01-26T14:38:17;1.70;99.90
17891;DHT22;9071;48.220;14.480;2023-01-26T14:43:20;1.60;99.90
17891;DHT22;9071;48.220;14.480;2023-01-26T14:48:27;1.50;99.90
17891;DHT22;9071;48.220;14.480;2023-01-26T14:53:35;1.50;99.90
17891;DHT22;9071;48.220;14.480;2023-01-26T14:58:37;1.50;99.90
17891;DHT22;9071;48.220;14.480;2023-01-26T15:03:42;1.50;99.90
17891;DHT22;9071;48.220;14.480;2023-01-26T15:08:54;1.50;99.90
17891;DHT22;9071;48.220;14.480;2023-01-26T15:13:56;1.40;99.90
17891;DHT22;9071;48.220;14.480;2023-01-26T15:19:01;1.30;99.90
17891;DHT22;9071;48.220;14.480;2023-01-26T15:24:04;1.30;99.90
17891;DHT22;9071;48.220;14.480;2023-01-26T15:29:17;1.30;99.90
17891;DHT22;9071;48.220;14.480;2023-01-26T15:34:32;1.20;99.90
17891;DHT22;9071;48.220;14.480;2023-01-26T15:39:36;1.20;99.90
17891;DHT22;9071;48.220;14.480;2023-01-26T15:44:38;1.30;99.90
17891;DHT22;9071;48.220;14.480;2023-01-26T15:49:42;1.20;99.90
17891;DHT22;9071;48.220;14.480;2023-01-26T15:54:44;1.30;99.90
17891;DHT22;9071;48.220;14.480;2023-01-26T15:59:46;1.20;99.90
17891;DHT22;9071;48.220;14.480;2023-01-26T16:04:50;1.20;99.90
17891;DHT22;9071;48.220;14.480;2023-01-26T16:09:52;1.20;99.90
17891;DHT22;9071;48.220;14.480;2023-01-26T16:14:55;1.20;99.90
17891;DHT22;9071;48.220;14.480;2023-01-26T16:19:58;1.20;99.90
17891;DHT22;9071;48.220;14.480;2023-01-26T16:25:01;1.20;99.90
17891;DHT22;9071;48.220;14.480;2023-01-26T16:30:03;1.20;99.90
17891;DHT22;9071;48.220;14.480;2023-01-26T16:35:11;1.20;99.90
17891;DHT22;9071;48.220;14.480;2023-01-26T16:40:15;1.20;99.90
17891;DHT22;9071;48.220;14.480;2023-01-26T16:45:20;1.20;99.90
17891;DHT22;9071;48.220;14.480;2023-01-26T16:50:24;1.20;99.90
17891;DHT22;9071;48.220;14.480;2023-01-26T16:55:26;1.20;99.90
17891;DHT22;9071;48.220;14.480;2023-01-26T17:00:28;1.10;99.90
17891;DHT22;9071;48.220;14.480;2023-01-26T17:05:32;1.10;99.90
17891;DHT22;9071;48.220;14.480;2023-01-26T17:10:34;1.10;99.90
17891;DHT22;9071;48.220;14.480;2023-01-26T17:15:36;1.10;99.90
17891;DHT22;9071;48.220;14.480;2023-01-26T17:20:40;1.20;99.90
17891;DHT22;9071;48.220;14.480;2023-01-26T17:25:42;1.10;99.90
17891;DHT22;9071;48.220;14.480;2023-01-26T17:30:44;1.10;99.90
17891;DHT22;9071;48.220;14.480;2023-01-26T17:35:58;1.10;99.90
17891;DHT22;9071;48.220;14.480;2023-01-26T17:41:00;1.10;99.90
17891;DHT22;9071;48.220;14.480;2023-01-26T17:46:03;1.10;99.90
17891;DHT22;9071;48.220;14.480;2023-01-26T17:51:09;1.10;99.90
17891;DHT22;9071;48.220;14.480;2023-01-26T17:56:13;1.10;99.90
17891;DHT22;9071;48.220;14.480;2023-01-26T18:01:16;1.10;99.90
17891;DHT22;9071;48.220;14.480;2023-01-26T18:06:20;1.10;99.90
17891;DHT22;9071;48.220;14.480;2023-01-26T18:11:22;1.10;99.90
17891;DHT22;9071;48.220;14.480;2023-01-26T18:16:25;1.10;99.90
17891;DHT22;9071;48.220;14.480;2023-01-26T18:21:29;1.10;99.90
17891;DHT22;9071;48.220;14.480;2023-01-26T18:26:34;1.20;99.90
17891;DHT22;9071;48.220;14.480;2023-01-26T18:31:37;1.10;99.90
17891;DHT22;9071;48.220;14.480;2023-01-26T18:36:42;1.10;99.90
17891;DHT22;9071;48.220;14.480;2023-01-26T18:41:44;1.10;99.90
17891;DHT22;9071;48.220;14.480;2023-01-26T18:46:46;1.20;99.90
17891;DHT22;9071;48.220;14.480;2023-01-26T18:51:49;1.20;99.90
17891;DHT22;9071;48.220;14.480;2023-01-26T18:56:51;1.20;99.90
17891;DHT22;9071;48.220;14.480;2023-01-26T19:01:54;1.20;99.90
17891;DHT22;9071;48.220;14.480;2023-01-26T19:06:57;1.30;99.90
17891;DHT22;9071;48.220;14.480;2023-01-26T19:11:59;1.30;99.90
17891;DHT22;9071;48.220;14.480;2023-01-26T19:17:02;1.30;99.90
17891;DHT22;9071;48.220;14.480;2023-01-26T19:22:05;1.30;99.90
17891;DHT22;9071;48.220;14.480;2023-01-26T19:27:07;1.20;99.90
17891;DHT22;9071;48.220;14.480;2023-01-26T19:32:10;1.20;99.90
17891;DHT22;9071;48.220;14.480;2023-01-26T19:37:13;1.20;99.90
17891;DHT22;9071;48.220;14.480;2023-01-26T19:42:15;1.20;99.90
17891;DHT22;9071;48.220;14.480;2023-01-26T19:47:17;1.20;99.90
17891;DHT22;9071;48.220;14.480;2023-01-26T19:52:21;1.20;99.90
17891;DHT22;9071;48.220;14.480;2023-01-26T19:57:23;1.20;99.90
17891;DHT22;9071;48.220;14.480;2023-01-26T20:02:25;1.20;99.90
17891;DHT22;9071;48.220;14.480;2023-01-26T20:07:28;1.20;99.90
17891;DHT22;9071;48.220;14.480;2023-01-26T20:12:30;1.20;99.90
17891;DHT22;9071;48.220;14.480;2023-01-26T20:17:33;1.10;99.90
17891;DHT22;9071;48.220;14.480;2023-01-26T20:22:36;1.10;99.90
17891;DHT22;9071;48.220;14.480;2023-01-26T20:27:38;1.10;99.90
17891;DHT22;9071;48.220;14.480;2023-01-26T20:32:41;1.10;99.90
17891;DHT22;9071;48.220;14.480;2023-01-26T20:37:44;1.10;99.90
17891;DHT22;9071;48.220;14.480;2023-01-26T20:42:46;1.10;99.90
17891;DHT22;9071;48.220;14.480;2023-01-26T20:47:48;1.10;99.90
17891;DHT22;9071;48.220;14.480;2023-01-26T20:52:52;1.10;99.90
17891;DHT22;9071;48.220;14.480;2023-01-26T20:57:55;1.10;99.90
17891;DHT22;9071;48.220;14.480;2023-01-26T21:02:57;1.10;99.90
17891;DHT22;9071;48.220;14.480;2023-01-26T21:08:00;1.10;99.90
17891;DHT22;9071;48.220;14.480;2023-01-26T21:13:02;1.10;99.90
17891;DHT22;9071;48.220;14.480;2023-01-26T21:18:04;1.10;99.90
17891;DHT22;9071;48.220;14.480;2023-01-26T21:23:08;1.10;99.90
17891;DHT22;9071;48.220;14.480;2023-01-26T21:28:10;1.10;99.90
17891;DHT22;9071;48.220;14.480;2023-01-26T21:33:12;1.10;99.90
17891;DHT22;9071;48.220;14.480;2023-01-26T21:38:15;1.10;99.90
17891;DHT22;9071;48.220;14.480;2023-01-26T21:43:17;1.10;99.90
17891;DHT22;9071;48.220;14.480;2023-01-26T21:48:20;1.10;99.90
17891;DHT22;9071;48.220;14.480;2023-01-26T21:53:39;1.10;99.90
17891;DHT22;9071;48.220;14.480;2023-01-26T21:58:41;1.10;99.90
17891;DHT22;9071;48.220;14.480;2023-01-26T22:03:58;1.10;99.90
17891;DHT22;9071;48.220;14.480;2023-01-26T22:09:02;1.10;99.90
17891;DHT22;9071;48.220;14.480;2023-01-26T22:14:05;1.10;99.90
17891;DHT22;9071;48.220;14.480;2023-01-26T22:19:07;1.10;99.90
17891;DHT22;9071;48.220;14.480;2023-01-26T22:24:13;1.10;99.90
17891;DHT22;9071;48.220;14.480;2023-01-26T22:29:15;1.10;99.90
17891;DHT22;9071;48.220;14.480;2023-01-26T22:34:17;1.10;99.90
17891;DHT22;9071;48.220;14.480;2023-01-26T22:39:20;1.10;99.90
17891;DHT22;9071;48.220;14.480;2023-01-26T22:44:22;1.10;99.90
17891;DHT22;9071;48.220;14.480;2023-01-26T22:49:24;1.10;99.90
17891;DHT22;9071;48.220;14.480;2023-01-26T22:54:28;1.20;99.90
17891;DHT22;9071;48.220;14.480;2023-01-26T22:59:30;1.10;99.90
17891;DHT22;9071;48.220;14.480;2023-01-26T23:04:32;1.10;99.90
17891;DHT22;9071;48.220;14.480;2023-01-26T23:09:36;1.20;99.90
17891;DHT22;9071;48.220;14.480;2023-01-26T23:14:38;1.20;99.90
17891;DHT22;9071;48.220;14.480;2023-01-26T23:19:40;1.20;99.90
17891;DHT22;9071;48.220;14.480;2023-01-26T23:24:43;1.10;99.90
17891;DHT22;9071;48.220;14.480;2023-01-26T23:30:06;1.20;99.90
17891;DHT22;9071;48.220;14.480;2023-01-26T23:35:08;1.10;99.90
17891;DHT22;9071;48.220;14.480;2023-01-26T23:40:12;1.20;99.90
17891;DHT22;9071;48.220;14.480;2023-01-26T23:45:15;1.10;99.90
17891;DHT22;9071;48.220;14.480;2023-01-26T23:50:18;1.20;99.90
17891;DHT22;9071;48.220;14.480;2023-01-26T23:55:21;1.20;99.90
